Portada
METAR-TAF:

METAR-TAF

Aeropuertos :

Aeropuerto Internacional Rey Abdulaziz

Yida, Arabia Saudita

latitud: 21-42N, longitud: 039-11E, altitud: 15 m

Observación

El informe se hizo hace 53 minutos, a las 03:00 UTC
Viento 3 kt del norte-noroeste
Temperatura 22°C
Humedad 65%
Presión 1010 hPa
Visibilidad 10 km o más
Escasas nubes a una altura de 4000 ft

METAR: OEJN 280300Z 34003KT 9999 FEW040 22/15 Q1010 NOSIG

Hora: 06:53 (03:53 UTC)

Pronóstico

El informe se hizo hace 4 horas y 53 minutos, a las 23:00 UTC
Pronóstico válido del 28 a las 00 UTC al 01 a las 06 UTC
Viento 3 kt con dirección variable
Visibilidad 10 km o más
Escasas nubes a una altura de 4000 ft
Evolucionando progresivamente
del 28 a las 06 UTC al 28 a las 08 UTC
Viento 14 kt del noroeste

TAF: OEJN 272300Z 2800/0106 VRB03KT 9999 FEW040 BECMG 2806/2808 32014KT

Observaciones y pronósticos meteorológicos de más de 4000 aeropuertos (mensajes METAR y TAF).

Los puntos amarillos y rojos representan las estaciones disponibles.

Ponga el ratón en el punto deseado para ver el nombre de la estación.

Haga clic para ver las observaciones y los pronósticos meteorológicos.

Para cambiar el mapa : haga clic en los botones verdes con una cruz de color negro para hacer un zoom, en el botón verde con un guión para alejar o en las flechas verdes para mapas adyacentes.


METAR-TAF: